createdAt,value
2023-11-24T00:04:25.245Z,8.85
2023-11-24T00:10:28.806Z,8.83
2023-11-24T00:19:01.681Z,8.82
2023-11-24T00:21:32.501Z,8.82
2023-11-24T00:24:29.330Z,8.83
2023-11-24T00:30:33.304Z,8.85
2023-11-24T00:47:13.511Z,8.85
2023-11-24T00:49:45.719Z,8.81
2023-11-24T00:52:17.793Z,8.80
2023-11-24T00:55:15.460Z,8.78
2023-11-24T01:07:20.472Z,8.70
2023-11-24T01:15:10.878Z,8.65
2023-11-24T01:18:22.086Z,8.64
2023-11-24T01:21:31.087Z,8.65
2023-11-24T01:30:03.212Z,8.64
2023-11-24T01:32:58.477Z,8.62
2023-11-24T01:35:28.121Z,8.63
2023-11-24T01:38:23.366Z,8.65
2023-11-24T01:41:04.298Z,8.62
2023-11-24T01:44:07.463Z,8.63
2023-11-24T01:47:00.045Z,8.63
2023-11-24T01:55:36.033Z,8.60
2023-11-24T02:07:10.576Z,8.56
2023-11-24T02:10:46.278Z,8.56
2023-11-24T02:14:07.085Z,8.57
2023-11-24T02:16:35.100Z,8.57
2023-11-24T02:19:27.608Z,8.60
2023-11-24T02:24:42.757Z,8.58
2023-11-24T02:27:39.157Z,8.59
2023-11-24T02:33:01.201Z,8.57
2023-11-24T02:35:31.497Z,8.56
2023-11-24T02:38:03.522Z,8.52
2023-11-24T02:40:31.282Z,8.49
2023-11-24T02:43:04.114Z,8.48
2023-11-24T02:45:32.409Z,8.44
2023-11-24T02:48:02.529Z,8.42
2023-11-24T02:50:37.604Z,8.42
2023-11-24T02:56:22.857Z,8.36
2023-11-24T02:58:38.122Z,8.35
2023-11-24T03:05:01.604Z,8.35
2023-11-24T03:09:01.236Z,8.37
2023-11-24T03:11:23.587Z,8.34
2023-11-24T03:16:40.144Z,8.29
2023-11-24T03:19:12.230Z,8.28
2023-11-24T03:21:46.427Z,8.28
2023-11-24T03:26:56.332Z,8.25
2023-11-24T03:33:01.844Z,8.22
2023-11-24T03:35:55.078Z,8.18
2023-11-24T03:38:56.293Z,8.19
2023-11-24T03:53:19.464Z,8.18
2023-11-24T03:56:08.161Z,8.17
2023-11-24T03:58:40.252Z,8.15
2023-11-24T04:01:09.901Z,8.15
2023-11-24T04:03:36.956Z,8.15
2023-11-24T04:06:29.318Z,8.14
2023-11-24T04:08:54.831Z,8.10
2023-11-24T04:11:55.366Z,8.10
2023-11-24T04:20:35.740Z,8.04
2023-11-24T04:25:50.879Z,7.94
2023-11-24T04:34:23.576Z,7.67
2023-11-24T04:36:51.262Z,7.57
2023-11-24T04:39:45.813Z,7.52
2023-11-24T04:42:42.412Z,7.50
2023-11-24T04:45:29.901Z,7.48
2023-11-24T04:48:00.470Z,7.47
2023-11-24T04:50:29.499Z,7.46
2023-11-24T04:56:53.362Z,7.41
2023-11-24T04:59:46.192Z,7.39
2023-11-24T05:05:25.135Z,7.45
2023-11-24T05:08:09.211Z,7.42
2023-11-24T05:11:05.201Z,7.38
2023-11-24T05:13:38.222Z,7.35
2023-11-24T05:16:06.543Z,7.35
2023-11-24T05:18:33.321Z,7.36
2023-11-24T05:21:00.093Z,7.34
2023-11-24T05:26:14.894Z,7.32
2023-11-24T05:28:41.777Z,7.32
2023-11-24T05:31:08.761Z,7.34
2023-11-24T05:33:35.638Z,7.35
2023-11-24T05:36:12.457Z,7.36
2023-11-24T05:38:42.485Z,7.39
2023-11-24T05:41:13.975Z,7.40
2023-11-24T05:43:43.538Z,7.39
2023-11-24T05:46:14.824Z,7.37
2023-11-24T05:52:01.205Z,7.39
2023-11-24T06:00:24.913Z,7.34
2023-11-24T06:02:51.786Z,7.28
2023-11-24T06:05:52.911Z,7.31
2023-11-24T06:08:20.657Z,7.27
2023-11-24T06:13:34.144Z,7.25
2023-11-24T06:16:00.901Z,7.21
2023-11-24T06:18:27.733Z,7.18
2023-11-24T06:20:54.566Z,7.20
2023-11-24T06:23:21.424Z,7.19
2023-11-24T06:25:48.178Z,7.17
2023-11-24T06:28:14.896Z,7.12
2023-11-24T06:30:41.578Z,7.05
2023-11-24T06:33:08.385Z,6.99
2023-11-24T06:35:35.118Z,6.93
2023-11-24T06:38:01.818Z,6.90
2023-11-24T06:40:28.603Z,6.94
2023-11-24T06:42:55.419Z,6.97
2023-11-24T06:45:23.919Z,6.97
2023-11-24T06:47:50.955Z,6.96
2023-11-24T06:50:17.718Z,6.95
2023-11-24T06:52:44.512Z,6.89
2023-11-24T06:55:12.240Z,6.83
2023-11-24T06:57:39.926Z,6.80
2023-11-24T07:00:07.488Z,6.80
2023-11-24T07:02:36.636Z,6.80
2023-11-24T07:05:04.105Z,6.78
2023-11-24T07:07:30.733Z,6.81
2023-11-24T07:10:02.637Z,6.85
2023-11-24T07:12:29.466Z,6.86
2023-11-24T07:14:56.317Z,6.90
2023-11-24T07:17:24.095Z,6.89
2023-11-24T07:19:51.072Z,6.84
2023-11-24T07:22:18.617Z,6.80
2023-11-24T07:24:47.752Z,6.72
2023-11-24T07:27:14.547Z,6.62
2023-11-24T07:29:41.667Z,6.58
2023-11-24T07:32:11.372Z,6.54
2023-11-24T07:34:38.504Z,6.52
2023-11-24T07:37:05.443Z,6.56
2023-11-24T07:39:32.212Z,6.57
2023-11-24T07:41:59.946Z,6.57
2023-11-24T07:44:31.609Z,6.59
2023-11-24T07:46:59.521Z,6.63
2023-11-24T07:49:26.509Z,6.70
2023-11-24T07:51:53.644Z,6.74
2023-11-24T07:54:20.552Z,6.78
2023-11-24T07:56:47.343Z,6.79
2023-11-24T07:59:14.063Z,6.79
2023-11-24T08:01:41.390Z,6.69
2023-11-24T08:04:08.981Z,6.58
2023-11-24T08:06:36.076Z,6.51
2023-11-24T08:16:18.010Z,6.48
2023-11-24T08:18:44.765Z,6.45
2023-11-24T08:21:11.555Z,6.38
2023-11-24T08:23:38.307Z,6.39
2023-11-24T08:26:05.199Z,6.39
2023-11-24T08:28:31.892Z,6.43
2023-11-24T08:30:58.574Z,6.44
2023-11-24T08:33:25.319Z,6.43
2023-11-24T08:35:52.001Z,6.48
2023-11-24T08:38:18.747Z,6.50
2023-11-24T08:40:45.479Z,6.57
2023-11-24T08:43:12.287Z,6.59
2023-11-24T08:45:39.124Z,6.60
2023-11-24T08:48:06.316Z,6.61
2023-11-24T08:50:33.076Z,6.60
2023-11-24T08:52:59.802Z,6.50
2023-11-24T08:55:26.879Z,6.45
2023-11-24T08:57:55.258Z,6.38
2023-11-24T09:00:22.002Z,6.32
2023-11-24T09:02:50.307Z,6.28
2023-11-24T09:05:17.131Z,6.28
2023-11-24T09:07:43.842Z,6.26
2023-11-24T09:10:20.428Z,6.26
2023-11-24T09:12:47.194Z,6.30
2023-11-24T09:15:14.054Z,6.33
2023-11-24T09:17:40.825Z,6.32
2023-11-24T09:20:09.972Z,6.35
2023-11-24T09:22:36.780Z,6.42
2023-11-24T09:25:04.023Z,6.47
2023-11-24T09:27:35.696Z,6.55
2023-11-24T09:30:05.376Z,6.59
2023-11-24T09:32:34.798Z,6.67
2023-11-24T09:35:03.465Z,6.77
2023-11-24T09:37:30.126Z,6.88
2023-11-24T09:39:56.968Z,6.95
2023-11-24T09:42:27.841Z,6.91
2023-11-24T09:44:56.145Z,6.82
2023-11-24T09:47:24.120Z,6.60
2023-11-24T09:49:51.445Z,6.49
2023-11-24T09:52:18.521Z,6.42
2023-11-24T09:54:45.267Z,6.47
2023-11-24T09:57:15.359Z,6.46
2023-11-24T09:59:42.282Z,6.46
2023-11-24T10:02:17.549Z,6.44
2023-11-24T10:04:44.833Z,6.44
2023-11-24T10:07:22.995Z,6.50
2023-11-24T10:09:50.324Z,6.58
2023-11-24T10:12:18.192Z,6.63
2023-11-24T10:14:45.976Z,6.70
2023-11-24T10:17:12.770Z,6.80
2023-11-24T10:19:43.919Z,6.90
2023-11-24T10:22:10.934Z,7.00
2023-11-24T10:24:40.550Z,7.09
2023-11-24T10:27:28.175Z,7.02
2023-11-24T10:29:54.917Z,6.93
2023-11-24T10:32:21.596Z,6.97
2023-11-24T10:34:48.330Z,7.01
2023-11-24T10:37:22.139Z,7.00
2023-11-24T10:39:52.877Z,6.99
2023-11-24T10:42:20.575Z,6.99
2023-11-24T10:44:55.916Z,6.99
2023-11-24T10:47:32.639Z,7.12
2023-11-24T10:50:07.316Z,7.20
2023-11-24T10:52:40.670Z,7.13
2023-11-24T10:55:15.180Z,7.06
2023-11-24T10:57:42.719Z,6.97
2023-11-24T11:00:15.781Z,6.86
2023-11-24T11:02:43.933Z,6.80
2023-11-24T11:05:18.546Z,6.82
2023-11-24T11:08:29.298Z,6.95
2023-11-24T11:11:02.576Z,7.00
2023-11-24T11:13:31.447Z,7.01
2023-11-24T11:15:58.229Z,6.97
2023-11-24T11:18:26.788Z,7.00
2023-11-24T11:20:54.048Z,7.00
2023-11-24T11:23:21.041Z,7.01
2023-11-24T11:25:52.021Z,7.08
2023-11-24T11:28:19.494Z,7.17
2023-11-24T11:30:54.181Z,7.28
2023-11-24T11:33:23.606Z,7.31
2023-11-24T11:36:00.006Z,7.23
2023-11-24T11:38:42.015Z,7.11
2023-11-24T11:41:10.497Z,6.97
2023-11-24T11:43:56.705Z,6.94
2023-11-24T11:46:24.625Z,6.92
2023-11-24T11:48:53.089Z,6.88
2023-11-24T11:51:22.648Z,6.86
2023-11-24T11:53:50.793Z,6.85
2023-11-24T11:56:17.620Z,6.83
2023-11-24T11:58:44.363Z,6.82
2023-11-24T12:01:11.081Z,6.90
2023-11-24T12:03:38.981Z,6.98
2023-11-24T12:06:09.031Z,7.11
2023-11-24T12:08:40.318Z,7.17
2023-11-24T12:11:14.503Z,7.22
2023-11-24T12:13:52.250Z,7.19
2023-11-24T12:16:19.190Z,7.18
2023-11-24T12:18:52.159Z,7.25
2023-11-24T12:21:19.444Z,7.30
2023-11-24T12:23:46.179Z,7.43
2023-11-24T12:26:12.987Z,7.56
2023-11-24T12:28:42.141Z,7.59
2023-11-24T12:31:09.036Z,7.64
2023-11-24T12:33:41.007Z,7.68
2023-11-24T12:36:09.119Z,7.63
2023-11-24T12:38:35.896Z,7.57
2023-11-24T12:41:06.908Z,7.48
2023-11-24T12:43:34.028Z,7.39
2023-11-24T12:46:00.879Z,7.36
2023-11-24T12:48:35.751Z,7.39
2023-11-24T12:51:02.497Z,7.40
2023-11-24T12:53:30.064Z,7.36
2023-11-24T12:56:08.997Z,7.31
2023-11-24T12:58:35.910Z,7.26
2023-11-24T13:01:02.716Z,7.24
2023-11-24T13:03:29.355Z,7.14
2023-11-24T13:05:56.129Z,7.06
2023-11-24T13:08:23.037Z,6.97
2023-11-24T13:10:49.968Z,6.96
2023-11-24T13:13:16.624Z,6.96
2023-11-24T13:15:44.757Z,6.96
2023-11-24T13:18:11.493Z,6.97
2023-11-24T13:20:38.327Z,6.98
2023-11-24T13:23:05.679Z,7.02
2023-11-24T13:25:35.930Z,7.11
2023-11-24T13:28:06.789Z,7.17
2023-11-24T13:30:34.363Z,7.23
2023-11-24T13:33:00.969Z,7.35
2023-11-24T13:35:27.668Z,7.34
2023-11-24T13:37:54.446Z,7.30
2023-11-24T13:40:27.352Z,7.18
2023-11-24T13:42:55.142Z,7.11
2023-11-24T13:45:22.146Z,7.14
2023-11-24T13:47:49.419Z,7.12
2023-11-24T13:50:17.173Z,7.10
2023-11-24T13:52:45.079Z,7.09
2023-11-24T13:55:13.182Z,7.04
2023-11-24T13:57:40.207Z,7.01
2023-11-24T14:00:11.660Z,6.98
2023-11-24T14:02:38.668Z,6.98
2023-11-24T14:05:06.571Z,7.01
2023-11-24T14:07:33.424Z,7.01
2023-11-24T14:10:00.222Z,7.01
2023-11-24T14:12:27.939Z,7.01
2023-11-24T14:14:54.926Z,6.99
2023-11-24T14:17:21.932Z,6.96
2023-11-24T14:19:48.684Z,6.94
2023-11-24T14:22:17.583Z,6.92
2023-11-24T14:24:45.301Z,6.90
2023-11-24T14:27:14.195Z,6.86
2023-11-24T14:29:41.454Z,6.86
2023-11-24T14:32:09.061Z,6.85
2023-11-24T14:34:36.451Z,6.84
2023-11-24T14:37:04.054Z,6.87
2023-11-24T14:39:34.574Z,6.91
2023-11-24T14:42:01.391Z,6.90
2023-11-24T14:44:28.654Z,6.93
2023-11-24T14:46:55.553Z,6.97
2023-11-24T14:49:22.610Z,6.99
2023-11-24T14:51:50.658Z,6.99
2023-11-24T14:54:18.308Z,6.97
2023-11-24T14:56:46.798Z,6.93
2023-11-24T14:59:13.735Z,6.82
2023-11-24T15:01:40.964Z,6.67
2023-11-24T15:04:17.909Z,6.57
2023-11-24T15:06:51.573Z,6.49
2023-11-24T15:09:20.089Z,6.43
2023-11-24T15:11:49.241Z,6.40
2023-11-24T15:14:16.232Z,6.38
2023-11-24T15:16:58.277Z,6.37
2023-11-24T15:19:27.439Z,6.39
2023-11-24T15:21:56.339Z,6.40
2023-11-24T15:24:24.112Z,6.40
2023-11-24T15:26:53.292Z,6.40
2023-11-24T15:29:20.208Z,6.38
2023-11-24T15:31:47.361Z,6.39
2023-11-24T15:34:14.865Z,6.43
2023-11-24T15:36:42.170Z,6.45
2023-11-24T15:39:21.056Z,6.42
2023-11-24T15:41:52.931Z,6.41
2023-11-24T15:44:28.121Z,6.42
2023-11-24T15:46:55.570Z,6.39
2023-11-24T15:49:22.445Z,6.32
2023-11-24T15:51:53.865Z,6.29
2023-11-24T15:54:28.102Z,6.25
2023-11-24T15:56:55.495Z,6.24
2023-11-24T15:59:26.738Z,6.26
2023-11-24T16:02:03.207Z,6.22
2023-11-24T16:04:34.565Z,6.21
2023-11-24T16:07:06.617Z,6.16
2023-11-24T16:09:52.266Z,6.08
2023-11-24T16:12:19.182Z,6.03
2023-11-24T16:14:47.150Z,5.96
2023-11-24T16:17:14.149Z,5.90
2023-11-24T16:19:41.236Z,5.88
2023-11-24T16:22:08.333Z,5.89
2023-11-24T16:24:35.170Z,5.86
2023-11-24T16:27:04.112Z,5.82
2023-11-24T16:29:31.059Z,5.83
2023-11-24T16:32:00.714Z,5.88
2023-11-24T16:34:27.934Z,5.88
2023-11-24T16:36:56.878Z,5.85
2023-11-24T16:39:24.532Z,5.74
2023-11-24T16:41:51.471Z,5.61
2023-11-24T16:44:18.222Z,5.55
2023-11-24T16:47:01.279Z,5.54
2023-11-24T16:49:31.966Z,5.47
2023-11-24T16:51:59.891Z,5.46
2023-11-24T16:54:27.421Z,5.47
2023-11-24T16:56:54.484Z,5.48
2023-11-24T16:59:22.340Z,5.46
2023-11-24T17:01:50.687Z,5.46
2023-11-24T17:04:17.639Z,5.47
2023-11-24T17:06:46.622Z,5.47
2023-11-24T17:09:16.874Z,5.50
2023-11-24T17:11:44.009Z,5.56
2023-11-24T17:14:10.998Z,5.60
2023-11-24T17:16:37.805Z,5.64
2023-11-24T17:19:04.802Z,5.58
2023-11-24T17:21:31.561Z,5.59
2023-11-24T17:23:58.314Z,5.61
2023-11-24T17:26:27.228Z,5.67
2023-11-24T17:28:54.713Z,5.71
2023-11-24T17:31:24.754Z,5.74
2023-11-24T17:33:53.464Z,5.77
2023-11-24T17:36:21.189Z,5.77
2023-11-24T17:38:48.829Z,5.82
2023-11-24T17:41:16.325Z,5.84
2023-11-24T17:43:43.493Z,5.87
2023-11-24T17:46:34.920Z,5.92
2023-11-24T17:49:04.316Z,5.94
2023-11-24T17:51:31.200Z,5.95
2023-11-24T17:53:59.250Z,5.96
2023-11-24T17:56:26.061Z,5.97
2023-11-24T17:58:53.169Z,6.01
2023-11-24T18:01:21.115Z,6.01
2023-11-24T18:03:49.628Z,6.02
2023-11-24T18:06:16.866Z,6.02
2023-11-24T18:08:43.675Z,6.05
2023-11-24T18:11:11.443Z,6.07
2023-11-24T18:13:38.078Z,6.09
2023-11-24T18:16:05.199Z,6.10
2023-11-24T18:18:33.548Z,6.15
2023-11-24T18:21:00.371Z,6.20
2023-11-24T18:23:28.446Z,6.21
2023-11-24T18:25:55.157Z,6.25
2023-11-24T18:28:21.826Z,6.26
2023-11-24T18:30:48.529Z,6.28
2023-11-24T18:33:15.539Z,6.32
2023-11-24T18:35:42.246Z,6.34
2023-11-24T18:38:10.246Z,6.38
2023-11-24T18:40:37.064Z,6.40
2023-11-24T18:43:05.724Z,6.44
2023-11-24T18:45:36.647Z,6.47
2023-11-24T18:48:03.366Z,6.42
2023-11-24T18:50:30.103Z,6.38
2023-11-24T18:52:58.194Z,6.36
2023-11-24T18:55:25.011Z,6.37
2023-11-24T18:57:56.213Z,6.36
2023-11-24T19:00:23.718Z,6.37
2023-11-24T19:02:51.055Z,6.39
2023-11-24T19:05:19.682Z,6.41
2023-11-24T19:07:46.677Z,6.46
2023-11-24T19:10:18.704Z,6.48
2023-11-24T19:12:48.273Z,6.46
2023-11-24T19:15:15.345Z,6.46
2023-11-24T19:17:42.100Z,6.47
2023-11-24T19:20:09.415Z,6.48
2023-11-24T19:22:46.632Z,6.39
2023-11-24T19:31:55.591Z,6.28
2023-11-24T19:36:01.115Z,6.27
2023-11-24T19:37:13.282Z,6.25
2023-11-24T19:39:41.216Z,6.26
2023-11-24T19:42:07.891Z,6.31
2023-11-24T19:44:38.393Z,6.33
2023-11-24T19:47:10.482Z,6.32
2023-11-24T19:49:39.043Z,6.22
2023-11-24T19:52:06.646Z,6.12
2023-11-24T19:54:33.580Z,6.03
2023-11-24T19:57:17.449Z,5.98
2023-11-24T19:59:44.136Z,5.94
2023-11-24T20:02:11.979Z,5.91
2023-11-24T20:04:39.068Z,5.93
2023-11-24T20:07:05.707Z,5.93
2023-11-24T20:09:32.438Z,5.93
2023-11-24T20:11:59.103Z,5.94
2023-11-24T20:14:25.806Z,5.94
2023-11-24T20:16:52.764Z,5.97
2023-11-24T20:19:19.648Z,5.98
2023-11-24T20:21:46.596Z,6.00
2023-11-24T20:24:13.265Z,6.02
2023-11-24T20:26:41.350Z,6.04
2023-11-24T20:29:09.104Z,6.03
2023-11-24T20:31:36.185Z,6.03
2023-11-24T20:34:03.005Z,6.08
2023-11-24T20:36:34.788Z,6.10
2023-11-24T20:39:01.665Z,6.09
2023-11-24T20:41:30.255Z,6.11
2023-11-24T20:43:56.960Z,6.14
2023-11-24T20:46:24.329Z,6.16
2023-11-24T20:48:51.036Z,6.17
2023-11-24T20:51:17.892Z,6.17
2023-11-24T20:53:44.646Z,6.13
2023-11-24T20:56:12.219Z,6.12
2023-11-24T20:58:39.577Z,6.11
2023-11-24T21:01:06.941Z,6.11
2023-11-24T21:03:33.849Z,6.12
2023-11-24T21:06:00.793Z,6.12
2023-11-24T21:08:28.168Z,6.14
2023-11-24T21:10:55.089Z,6.13
2023-11-24T21:13:23.441Z,6.13
2023-11-24T21:15:50.602Z,6.16
2023-11-24T21:18:17.497Z,6.14
2023-11-24T21:20:48.840Z,6.12
2023-11-24T21:23:21.855Z,6.14
2023-11-24T21:25:49.879Z,6.13
2023-11-24T21:28:16.578Z,6.13
2023-11-24T21:30:44.042Z,6.13
2023-11-24T21:33:13.232Z,6.14
2023-11-24T21:35:53.227Z,6.18
2023-11-24T21:38:22.454Z,6.18
2023-11-24T21:40:51.710Z,6.21
2023-11-24T21:43:19.265Z,6.22
2023-11-24T21:45:53.716Z,6.17
2023-11-24T21:48:20.354Z,6.04
2023-11-24T21:51:06.449Z,5.94
2023-11-24T21:53:35.128Z,5.86
2023-11-24T21:56:13.244Z,5.71
2023-11-24T21:58:44.020Z,5.61
2023-11-24T22:01:19.326Z,5.60
2023-11-24T22:04:06.989Z,5.62
2023-11-24T22:06:36.866Z,5.64
2023-11-24T22:09:05.680Z,5.70
2023-11-24T22:11:35.788Z,5.78
2023-11-24T22:14:02.602Z,5.84
2023-11-24T22:16:29.717Z,5.80
2023-11-24T22:18:56.524Z,5.74
2023-11-24T22:21:23.750Z,5.66
2023-11-24T22:23:50.744Z,5.64
2023-11-24T22:26:24.303Z,5.64
2023-11-24T22:28:53.843Z,5.67
2023-11-24T22:31:20.817Z,5.66
2023-11-24T22:33:47.871Z,5.64
2023-11-24T22:36:19.952Z,5.63
2023-11-24T22:38:48.021Z,5.64
2023-11-24T22:41:24.155Z,5.66
2023-11-24T22:43:55.436Z,5.61
2023-11-24T22:46:29.218Z,5.61
2023-11-24T22:48:56.220Z,5.61
2023-11-24T22:51:27.724Z,5.61
2023-11-24T22:53:54.769Z,5.59
2023-11-24T22:56:21.851Z,5.56
2023-11-24T22:58:51.871Z,5.59
2023-11-24T23:01:21.748Z,5.58
2023-11-24T23:03:48.619Z,5.56
2023-11-24T23:06:15.889Z,5.58
2023-11-24T23:08:42.557Z,5.56
2023-11-24T23:11:16.068Z,5.57
2023-11-24T23:13:44.458Z,5.60
2023-11-24T23:16:11.303Z,5.61
2023-11-24T23:18:41.949Z,5.59
2023-11-24T23:21:13.409Z,5.56
2023-11-24T23:23:41.634Z,5.51
2023-11-24T23:26:09.353Z,5.44
2023-11-24T23:28:37.998Z,5.37
2023-11-24T23:31:07.703Z,5.30
2023-11-24T23:33:37.221Z,5.28
2023-11-24T23:36:04.656Z,5.27
2023-11-24T23:38:34.286Z,5.26
2023-11-24T23:41:02.330Z,5.24
2023-11-24T23:43:30.126Z,5.18
2023-11-24T23:45:57.661Z,5.10
2023-11-24T23:48:25.122Z,5.08
2023-11-24T23:50:52.897Z,5.01
2023-11-24T23:53:24.374Z,4.96
2023-11-24T23:55:51.400Z,4.96
2023-11-24T23:58:19.486Z,4.98
